Time;durP1;ratioP1;P1;durP2;ratioP2;P2;SDS_P1;SDS_P2;PMS_P1;PMS_P2;Temp;Humidity;BMP_temperature;BMP_pressure;BME280_temperature;BME280_humidity;BME280_pressure;Samples;Min_cycle;Max_cycle;Signal;HPM_P1;HPM_P2
2023/08/11 00:02:11;;;;;;;5.93;1.83;;;15.70;99.90;;;;;;4813050;29;20460;-80
2023/08/11 00:04:38;;;;;;;5.25;2.35;;;15.90;99.90;;;;;;4801862;29;20054;-79
2023/08/11 00:07:06;;;;;;;4.93;2.20;;;15.90;99.90;;;;;;4824799;29;20060;-79
2023/08/11 00:09:34;;;;;;;5.32;1.80;;;15.90;99.90;;;;;;4832517;29;20046;-79
2023/08/11 00:12:02;;;;;;;7.20;1.70;;;16.00;99.90;;;;;;4812386;29;20108;-79
2023/08/11 00:14:29;;;;;;;4.85;1.80;;;15.90;99.90;;;;;;4829955;29;20054;-79
2023/08/11 00:16:58;;;;;;;5.15;2.17;;;15.90;99.90;;;;;;4817398;29;20050;-79
2023/08/11 00:19:25;;;;;;;6.22;2.15;;;15.90;99.90;;;;;;4811471;29;20142;-79
2023/08/11 00:21:53;;;;;;;4.45;1.63;;;15.90;99.90;;;;;;4820787;29;20122;-79
2023/08/11 00:24:20;;;;;;;3.88;1.88;;;15.90;99.90;;;;;;4816371;29;20110;-79
2023/08/11 00:26:48;;;;;;;4.05;1.60;;;15.80;99.90;;;;;;4815447;29;20307;-79
2023/08/11 00:29:15;;;;;;;6.43;2.05;;;15.80;99.90;;;;;;4814270;29;20530;-79
2023/08/11 00:31:45;;;;;;;4.07;1.77;;;15.80;99.90;;;;;;4815407;29;20107;-79
2023/08/11 00:34:13;;;;;;;2.80;1.40;;;15.80;99.90;;;;;;4816204;29;20047;-79
2023/08/11 00:36:41;;;;;;;6.20;2.20;;;15.80;99.90;;;;;;4819230;29;20039;-79
2023/08/11 00:39:09;;;;;;;4.57;1.70;;;15.80;99.90;;;;;;4819641;29;20054;-79
2023/08/11 00:41:36;;;;;;;6.05;2.45;;;15.80;99.90;;;;;;4811903;29;20129;-79
2023/08/11 00:44:04;;;;;;;5.97;1.63;;;15.80;99.90;;;;;;4820064;29;20053;-79
2023/08/11 00:46:32;;;;;;;4.63;2.10;;;15.70;99.90;;;;;;4816709;29;20149;-79
2023/08/11 00:49:00;;;;;;;5.68;2.17;;;15.50;99.90;;;;;;4826433;29;20061;-79
2023/08/11 00:51:28;;;;;;;8.63;2.15;;;15.60;99.90;;;;;;4803974;29;20046;-79
2023/08/11 00:53:57;;;;;;;6.78;1.70;;;15.60;99.90;;;;;;4818323;29;20082;-79
2023/08/11 00:56:25;;;;;;;5.90;1.80;;;15.60;99.90;;;;;;4817117;29;20141;-79
2023/08/11 00:58:53;;;;;;;6.07;1.80;;;15.70;99.90;;;;;;4816888;29;20061;-79
2023/08/11 01:01:21;;;;;;;4.75;1.98;;;15.50;99.90;;;;;;4797509;29;20081;-79
2023/08/11 01:03:50;;;;;;;4.03;1.55;;;15.50;99.90;;;;;;4791910;29;20145;-79
2023/08/11 01:06:42;;;;;;;5.15;1.65;;;15.50;99.90;;;;;;4801810;29;20107;-79
2023/08/11 01:09:43;;;;;;;;;;;15.50;99.90;;;;;;4814901;29;20042;-79
2023/08/11 01:12:35;;;;;;;3.67;1.75;;;15.50;99.90;;;;;;4814514;29;19924;-79
2023/08/11 01:15:17;;;;;;;4.88;1.65;;;15.40;99.90;;;;;;4821725;29;20053;-79
2023/08/11 01:17:55;;;;;;;3.15;1.60;;;15.40;99.90;;;;;;4823789;29;20057;-79
2023/08/11 01:20:26;;;;;;;5.40;1.70;;;15.30;99.90;;;;;;4812461;29;20053;-79
2023/08/11 01:23:07;;;;;;;6.70;2.20;;;15.20;99.90;;;;;;4810219;29;20142;-79
2023/08/11 01:26:01;;;;;;;3.50;1.90;;;15.30;99.90;;;;;;4796624;29;20425;-79
2023/08/11 01:28:32;;;;;;;4.55;1.70;;;14.20;99.90;;;;;;4815647;29;20046;-79
2023/08/11 01:31:04;;;;;;;2.85;1.70;;;15.40;99.90;;;;;;4800879;29;20046;-79
2023/08/11 01:33:32;;;;;;;4.50;2.70;;;15.10;99.90;;;;;;4794101;29;20058;-79
2023/08/11 01:35:59;;;;;;;2.80;1.20;;;15.90;99.90;;;;;;4814640;29;20058;-79
2023/08/11 01:38:29;;;;;;;4.55;1.63;;;15.50;99.90;;;;;;4816193;29;20066;-79
2023/08/11 01:41:06;;;;;;;4.65;1.40;;;15.30;99.90;;;;;;4803767;29;20137;-79
2023/08/11 01:43:36;;;;;;;3.95;1.50;;;15.40;99.90;;;;;;4814367;29;21255;-78
2023/08/11 01:46:36;;;;;;;6.85;1.65;;;15.30;99.90;;;;;;4819088;29;20146;-79
2023/08/11 01:49:20;;;;;;;3.33;1.40;;;15.70;99.90;;;;;;4817083;29;20054;-79
2023/08/11 01:51:53;;;;;;;3.13;1.50;;;15.50;99.90;;;;;;4798478;29;20048;-79
2023/08/11 01:54:31;;;;;;;5.90;1.70;;;15.10;99.90;;;;;;4802233;29;20050;-80
2023/08/11 01:57:01;;;;;;;3.40;1.73;;;15.00;99.90;;;;;;4804236;29;20584;-79
2023/08/11 01:59:31;;;;;;;3.38;1.45;;;14.90;99.90;;;;;;4793815;29;20133;-79
2023/08/11 02:02:08;;;;;;;4.60;1.40;;;15.00;99.90;;;;;;4808903;29;20077;-79
2023/08/11 02:04:39;;;;;;;5.70;1.65;;;14.90;99.90;;;;;;4796933;29;20061;-79
2023/08/11 02:07:07;;;;;;;4.32;1.42;;;15.00;99.90;;;;;;4805037;29;20081;-79
2023/08/11 02:09:37;;;;;;;6.35;1.80;;;14.80;99.90;;;;;;4812811;29;20718;-79
2023/08/11 02:12:05;;;;;;;7.10;1.58;;;14.90;99.90;;;;;;4803850;29;20046;-79
2023/08/11 02:14:33;;;;;;;3.20;1.40;;;14.80;99.90;;;;;;4800914;29;20043;-79
2023/08/11 02:17:00;;;;;;;4.25;1.60;;;14.30;99.90;;;;;;4811646;29;23000;-80
2023/08/11 02:19:28;;;;;;;3.38;1.02;;;14.80;99.90;;;;;;4825951;29;20045;-79
2023/08/11 02:21:57;;;;;;;2.86;1.30;;;14.80;99.90;;;;;;4799114;29;1295200;-79
2023/08/11 02:24:24;;;;;;;3.42;1.80;;;13.60;99.90;;;;;;4812182;29;20426;-79
2023/08/11 02:26:52;;;;;;;5.68;1.90;;;14.80;99.90;;;;;;4825033;29;20082;-79
2023/08/11 02:29:19;;;;;;;3.95;1.45;;;14.80;99.90;;;;;;4826389;29;20054;-79
2023/08/11 02:31:47;;;;;;;3.20;1.67;;;14.80;99.90;;;;;;4828411;29;20060;-79
2023/08/11 02:34:15;;;;;;;5.45;1.92;;;14.80;99.90;;;;;;4817626;29;20125;-79
2023/08/11 02:36:42;;;;;;;3.05;1.40;;;14.90;99.90;;;;;;4817129;29;20046;-79
2023/08/11 02:39:10;;;;;;;3.58;1.67;;;14.80;99.90;;;;;;4813969;29;20061;-79
2023/08/11 02:41:37;;;;;;;4.47;1.70;;;14.70;99.90;;;;;;4815719;29;20053;-79
2023/08/11 02:44:08;;;;;;;4.25;2.00;;;14.70;99.90;;;;;;4809455;29;20053;-79
2023/08/11 02:46:36;;;;;;;4.43;1.77;;;14.70;99.90;;;;;;4809502;29;20058;-79
2023/08/11 02:49:03;;;;;;;6.53;2.03;;;14.70;99.90;;;;;;4801491;29;20163;-79
2023/08/11 02:51:31;;;;;;;4.93;1.70;;;14.60;99.90;;;;;;4797019;29;20175;-79
2023/08/11 02:53:58;;;;;;;2.35;1.45;;;14.50;99.90;;;;;;4783124;29;20058;-79
2023/08/11 02:56:31;;;;;;;3.75;1.63;;;14.60;99.90;;;;;;4796242;29;20068;-79
2023/08/11 02:58:59;;;;;;;5.05;1.60;;;14.70;99.90;;;;;;4796932;29;20510;-78
2023/08/11 03:01:27;;;;;;;4.70;1.90;;;14.60;99.90;;;;;;4793853;29;20050;-79
2023/08/11 03:03:56;;;;;;;4.53;1.77;;;15.20;99.90;;;;;;4781338;29;20062;-79
2023/08/11 03:06:23;;;;;;;2.72;1.58;;;14.50;99.90;;;;;;4797509;29;20047;-79
2023/08/11 03:08:51;;;;;;;3.85;1.25;;;14.40;99.90;;;;;;4786141;29;20074;-79
2023/08/11 03:11:18;;;;;;;6.05;2.00;;;14.40;99.90;;;;;;4776323;29;20438;-79
2023/08/11 03:13:46;;;;;;;4.20;1.90;;;14.50;99.90;;;;;;4799758;29;20054;-79
2023/08/11 03:16:13;;;;;;;4.47;1.90;;;14.50;99.90;;;;;;4795558;29;20411;-79
2023/08/11 03:18:41;;;;;;;4.28;2.17;;;14.60;99.90;;;;;;4782016;29;20543;-79
2023/08/11 03:21:11;;;;;;;3.47;2.03;;;14.40;99.90;;;;;;4788529;29;20043;-79
2023/08/11 03:23:48;;;;;;;4.60;1.90;;;14.80;99.90;;;;;;4784399;29;20042;-79
2023/08/11 03:26:17;;;;;;;4.22;1.63;;;14.40;99.90;;;;;;4806082;29;20050;-79
2023/08/11 03:28:45;;;;;;;5.82;2.13;;;15.20;99.90;;;;;;4812753;29;20054;-79
2023/08/11 03:31:13;;;;;;;4.70;1.85;;;14.30;99.90;;;;;;4820222;29;20046;-79
2023/08/11 03:33:43;;;;;;;6.50;1.92;;;14.40;99.90;;;;;;4799045;29;20083;-79
2023/08/11 03:36:13;;;;;;;3.78;2.08;;;14.30;99.90;;;;;;4799227;29;20057;-79
2023/08/11 03:38:45;;;;;;;4.47;2.50;;;14.20;99.90;;;;;;4800542;29;20066;-79
2023/08/11 03:41:16;;;;;;;3.92;2.20;;;14.30;99.90;;;;;;4811476;29;20406;-79
2023/08/11 03:43:45;;;;;;;6.35;2.63;;;14.40;99.90;;;;;;4796709;29;20449;-79
2023/08/11 03:46:15;;;;;;;4.45;2.22;;;14.20;99.90;;;;;;4794423;29;20519;-79
2023/08/11 03:48:46;;;;;;;5.45;2.17;;;14.30;99.90;;;;;;4797059;29;20074;-79
2023/08/11 03:51:14;;;;;;;4.75;2.05;;;14.10;99.90;;;;;;4815040;29;20046;-79
2023/08/11 03:53:46;;;;;;;4.45;2.40;;;13.90;99.90;;;;;;4807484;29;20128;-79
2023/08/11 03:56:16;;;;;;;10.20;2.20;;;14.30;99.90;;;;;;4796467;29;20049;-80
2023/08/11 03:58:47;;;;;;;3.47;2.00;;;14.30;99.90;;;;;;4785497;29;20055;-80
2023/08/11 04:01:20;;;;;;;5.10;2.15;;;13.50;99.90;;;;;;4796045;29;20046;-79
2023/08/11 04:03:51;;;;;;;6.60;1.80;;;14.40;99.90;;;;;;4783845;29;20070;-79
2023/08/11 04:06:22;;;;;;;5.20;2.25;;;14.40;99.90;;;;;;4787024;29;20592;-79
2023/08/11 04:09:10;;;;;;;5.30;2.88;;;14.40;99.90;;;;;;4778729;29;20140;-79
2023/08/11 04:11:37;;;;;;;7.28;2.88;;;14.50;99.90;;;;;;4762794;30;20136;-79
2023/08/11 04:14:05;;;;;;;4.68;2.28;;;14.40;99.90;;;;;;4778950;29;20075;-80
2023/08/11 04:16:33;;;;;;;5.97;2.10;;;14.60;99.90;;;;;;4780281;29;20450;-79
2023/08/11 04:19:00;;;;;;;5.95;2.28;;;14.40;99.90;;;;;;4767494;29;20060;-79
2023/08/11 04:21:28;;;;;;;3.92;2.05;;;14.50;99.90;;;;;;4777650;29;20097;-79
2023/08/11 04:23:57;;;;;;;6.40;2.58;;;14.50;99.90;;;;;;4767202;29;20184;-79
2023/08/11 04:26:26;;;;;;;6.38;2.25;;;14.50;99.90;;;;;;4748123;29;20060;-79
2023/08/11 04:28:53;;;;;;;2.58;1.70;;;14.50;99.90;;;;;;4772610;29;20059;-79
2023/08/11 04:31:22;;;;;;;5.05;1.90;;;14.50;99.90;;;;;;4769833;29;20057;-79
2023/08/11 04:33:50;;;;;;;4.22;2.10;;;14.60;99.90;;;;;;4779895;29;20161;-80
2023/08/11 04:36:19;;;;;;;6.85;2.22;;;14.60;99.90;;;;;;4790649;29;20052;-80
2023/08/11 04:38:49;;;;;;;3.75;1.95;;;14.60;99.90;;;;;;4781376;29;20055;-80
2023/08/11 04:41:16;;;;;;;5.82;2.05;;;14.50;99.90;;;;;;4815290;29;20058;-80
2023/08/11 04:43:44;;;;;;;6.32;1.90;;;14.80;99.90;;;;;;4804735;29;20136;-80
2023/08/11 04:46:11;;;;;;;6.35;2.05;;;14.80;99.90;;;;;;4801347;29;20137;-80
2023/08/11 04:48:39;;;;;;;4.25;2.20;;;14.90;99.90;;;;;;4796412;29;20051;-80
2023/08/11 04:51:06;;;;;;;4.32;2.05;;;14.90;99.90;;;;;;4812897;29;20058;-79
2023/08/11 04:53:34;;;;;;;3.90;1.92;;;14.90;99.90;;;;;;4824464;29;20050;-79
2023/08/11 04:56:03;;;;;;;3.42;2.20;;;15.00;99.90;;;;;;4814731;29;20062;-79
2023/08/11 04:58:33;;;;;;;4.72;2.22;;;15.10;99.90;;;;;;4804100;29;20082;-79
2023/08/11 05:01:03;;;;;;;3.97;1.92;;;15.10;99.90;;;;;;4818728;29;20072;-79
2023/08/11 05:03:32;;;;;;;3.90;2.20;;;15.20;99.90;;;;;;4828597;29;20054;-80
2023/08/11 05:06:00;;;;;;;5.22;2.08;;;15.30;99.90;;;;;;4820775;29;20062;-80
2023/08/11 05:08:31;;;;;;;5.20;1.52;;;15.20;99.90;;;;;;4809309;29;20062;-80
2023/08/11 05:10:58;;;;;;;4.32;1.85;;;15.30;99.90;;;;;;4809391;29;20187;-80
2023/08/11 05:13:29;;;;;;;4.32;2.15;;;15.20;99.90;;;;;;4819514;29;20414;-80
2023/08/11 05:15:56;;;;;;;3.85;1.90;;;15.40;99.90;;;;;;4818757;29;20047;-79
2023/08/11 05:18:23;;;;;;;2.97;1.73;;;15.40;99.90;;;;;;4811802;29;20057;-79
2023/08/11 05:21:00;;;;;;;3.20;1.65;;;15.60;99.90;;;;;;4807279;29;20145;-79
2023/08/11 05:23:28;;;;;;;3.67;1.73;;;15.60;99.90;;;;;;4820899;29;20072;-79
2023/08/11 05:25:55;;;;;;;3.50;1.60;;;15.70;99.90;;;;;;4810480;29;20054;-79
2023/08/11 05:28:22;;;;;;;4.28;1.80;;;15.70;99.90;;;;;;4815100;29;20913;-79
2023/08/11 05:30:49;;;;;;;2.40;1.70;;;16.50;99.90;;;;;;4815971;29;20102;-80
2023/08/11 05:33:17;;;;;;;2.97;1.67;;;15.90;99.90;;;;;;4809958;29;20046;-80
2023/08/11 05:35:44;;;;;;;3.60;1.52;;;16.00;99.90;;;;;;4827040;29;20045;-79
2023/08/11 05:38:12;;;;;;;2.40;1.50;;;16.10;99.90;;;;;;4820679;29;20050;-79
2023/08/11 05:40:40;;;;;;;2.75;1.30;;;16.20;99.90;;;;;;4827097;29;20111;-79
2023/08/11 05:43:07;;;;;;;3.15;1.50;;;16.40;99.90;;;;;;4817753;29;20054;-80
2023/08/11 05:45:35;;;;;;;3.70;1.65;;;16.40;99.90;;;;;;4817455;29;20050;-80
2023/08/11 05:48:02;;;;;;;3.05;1.30;;;16.60;99.90;;;;;;4810218;29;20077;-80
2023/08/11 05:50:30;;;;;;;4.40;1.50;;;16.60;99.90;;;;;;4822624;29;20062;-80
2023/08/11 05:52:57;;;;;;;3.03;1.20;;;16.70;99.90;;;;;;4802223;29;20058;-80
2023/08/11 05:55:25;;;;;;;2.70;1.60;;;16.00;99.90;;;;;;4783778;29;20852;-80
2023/08/11 05:57:53;;;;;;;3.25;1.40;;;17.10;99.90;;;;;;4771147;29;20058;-80
2023/08/11 06:07:30;;;;;;;3.33;1.20;;;17.50;99.90;;;;;;5335466;24;20159;-79
2023/08/11 06:30:31;;;;;;;2.92;1.50;;;18.60;97.40;;;;;;5157782;24;20230;-78
2023/08/11 06:36:24;;;;;;;2.50;1.45;;;19.00;96.90;;;;;;5808927;24;20089;31
2023/08/11 07:52:54;;;;;;;4.13;2.20;;;21.30;92.80;;;;;;5401699;24;20281;-79
2023/08/11 08:43:21;;;;;;;3.53;2.08;;;22.20;89.00;;;;;;5704819;24;19931;-77
2023/08/11 08:46:06;;;;;;;4.25;1.90;;;22.20;88.10;;;;;;5486723;24;20060;-81
2023/08/11 08:51:54;;;;;;;3.00;1.80;;;22.20;90.10;;;;;;5527730;24;20029;-78
2023/08/11 09:13:14;;;;;;;1.88;1.20;;;22.60;89.10;;;;;;5866009;24;20083;31
2023/08/11 09:22:49;;;;;;;2.28;1.60;;;22.80;83.90;;;;;;5864068;24;20081;31
2023/08/11 09:25:49;;;;;;;2.60;1.80;;;22.60;84.90;;;;;;5449168;24;20059;31
2023/08/11 09:51:18;;;;;;;1.80;1.20;;;22.70;81.90;;;;;;5088408;24;20073;-78
2023/08/11 09:53:48;;;;;;;1.80;1.20;;;22.90;81.00;;;;;;4814300;29;20050;-79
2023/08/11 09:59:14;;;;;;;1.92;1.10;;;23.00;79.80;;;;;;5680533;24;20057;-82
2023/08/11 10:05:10;;;;;;;2.40;1.60;;;23.00;78.90;;;;;;5021519;24;20060;-83
2023/08/11 10:07:44;;;;;;;2.55;1.33;;;23.00;79.50;;;;;;4844723;29;20082;-83
2023/08/11 10:10:15;;;;;;;1.38;0.93;;;22.60;80.50;;;;;;4845774;29;20082;-83
2023/08/11 10:18:53;;;;;;;1.80;1.35;;;22.60;79.80;;;;;;5170678;24;20096;-80
2023/08/11 10:28:17;;;;;;;1.73;0.70;;;22.80;76.60;;;;;;5311936;24;20042;-82
2023/08/11 10:30:53;;;;;;;1.08;0.80;;;22.50;75.60;;;;;;4828080;29;20042;-82
2023/08/11 10:33:20;;;;;;;1.23;1.00;;;22.50;77.30;;;;;;4796436;29;20057;-79
2023/08/11 10:35:52;;;;;;;3.42;0.80;;;22.50;76.20;;;;;;4818170;29;20067;-81
2023/08/11 10:48:42;;;;;;;2.05;0.70;;;23.10;73.00;;;;;;5174808;24;20483;-82
2023/08/11 10:58:10;;;;;;;1.45;0.50;;;22.90;73.10;;;;;;4835767;29;20046;-83
2023/08/11 11:00:37;;;;;;;1.13;0.57;;;23.10;72.30;;;;;;4787541;29;22870;-78
2023/08/11 11:03:12;;;;;;;1.35;0.63;;;23.30;72.20;;;;;;4807015;29;20052;-82
2023/08/11 11:05:43;;;;;;;2.25;0.60;;;23.50;71.80;;;;;;4819886;29;20050;-80
2023/08/11 11:08:17;;;;;;;1.30;0.68;;;23.50;69.60;;;;;;4832427;29;20045;-83
2023/08/11 11:10:45;;;;;;;2.17;0.70;;;23.40;69.30;;;;;;4807202;29;20074;-83
2023/08/11 11:13:20;;;;;;;1.60;0.70;;;23.40;70.60;;;;;;4823135;29;20057;-82
2023/08/11 11:15:51;;;;;;;1.60;0.77;;;23.80;71.10;;;;;;4824499;29;20502;-80
2023/08/11 11:18:20;;;;;;;1.50;1.00;;;23.80;70.50;;;;;;4823997;29;20042;-81
2023/08/11 11:21:00;;;;;;;2.33;0.70;;;23.70;69.40;;;;;;4826467;29;20103;-84
2023/08/11 11:23:27;;;;;;;5.28;1.20;;;23.70;69.30;;;;;;4812225;29;20069;-83
2023/08/11 11:25:55;;;;;;;1.55;0.80;;;23.60;70.80;;;;;;4804008;29;20060;-83
2023/08/11 11:28:25;;;;;;;1.27;0.70;;;23.60;69.90;;;;;;4813654;29;20053;-83
2023/08/11 11:30:53;;;;;;;1.25;0.55;;;23.70;70.40;;;;;;4812847;29;20061;-83
2023/08/11 11:33:22;;;;;;;0.73;0.40;;;23.80;70.90;;;;;;4826474;29;20054;-82
2023/08/11 11:35:50;;;;;;;1.25;0.65;;;23.80;70.40;;;;;;4810617;29;20054;-79
2023/08/11 11:38:18;;;;;;;2.55;0.82;;;24.10;70.00;;;;;;4794187;29;20095;-80
2023/08/11 11:40:53;;;;;;;1.42;0.82;;;24.00;69.70;;;;;;4840240;29;20041;-81
2023/08/11 11:43:20;;;;;;;1.63;0.70;;;24.00;69.60;;;;;;4828239;29;20110;-79
2023/08/11 11:45:52;;;;;;;1.15;0.60;;;23.70;68.70;;;;;;4812029;29;20599;-83
2023/08/11 11:48:23;;;;;;;2.25;0.50;;;23.50;69.60;;;;;;4813006;29;20054;-84
2023/08/11 11:50:51;;;;;;;2.60;0.73;;;23.50;68.90;;;;;;4811357;29;20054;-82
2023/08/11 11:53:22;;;;;;;1.17;0.63;;;23.70;67.50;;;;;;4825064;29;20050;-81
2023/08/11 11:55:52;;;;;;;1.08;0.60;;;23.70;70.00;;;;;;4810637;29;20060;-83
2023/08/11 11:58:21;;;;;;;1.95;0.80;;;23.70;71.80;;;;;;4825141;29;20107;-83
2023/08/11 12:00:48;;;;;;;1.15;0.63;;;23.80;71.30;;;;;;4807141;29;20081;-83
2023/08/11 12:03:15;;;;;;;1.40;0.85;;;23.80;69.90;;;;;;4809810;29;20125;-83
2023/08/11 12:05:43;;;;;;;2.05;0.63;;;23.90;71.40;;;;;;4808048;29;20045;-83
2023/08/11 12:08:22;;;;;;;1.23;0.50;;;23.90;68.80;;;;;;4810820;29;20050;-82
2023/08/11 12:10:52;;;;;;;0.70;0.50;;;23.90;68.20;;;;;;4824549;29;20053;-79
2023/08/11 12:13:19;;;;;;;2.35;0.80;;;24.10;68.30;;;;;;4808657;29;20075;-81
2023/08/11 12:15:49;;;;;;;1.98;0.70;;;23.80;67.90;;;;;;4824905;29;20061;-82
2023/08/11 12:18:16;;;;;;;2.47;0.70;;;23.50;69.10;;;;;;4807734;29;20459;-84
2023/08/11 12:20:44;;;;;;;1.35;0.60;;;23.50;70.00;;;;;;4818563;29;20045;-83
2023/08/11 12:23:11;;;;;;;1.10;0.40;;;23.40;67.80;;;;;;4825174;29;20421;-82
2023/08/11 12:25:38;;;;;;;1.10;0.60;;;23.30;68.20;;;;;;4801532;29;20052;-84
2023/08/11 12:28:05;;;;;;;1.10;0.68;;;23.30;67.30;;;;;;4828673;29;20129;-84
2023/08/11 12:30:32;;;;;;;1.75;0.60;;;23.40;66.60;;;;;;4807768;29;20115;-83
2023/08/11 12:33:00;;;;;;;1.70;0.57;;;23.60;68.00;;;;;;4829275;29;20056;-84
2023/08/11 12:35:27;;;;;;;1.02;0.73;;;23.90;66.30;;;;;;4825419;29;20117;-83
2023/08/11 12:37:54;;;;;;;1.80;0.65;;;24.00;66.40;;;;;;4804072;29;20043;-81
2023/08/11 12:40:24;;;;;;;0.80;0.50;;;23.90;65.40;;;;;;4813391;29;20088;-84
2023/08/11 12:42:51;;;;;;;1.23;0.60;;;23.90;65.30;;;;;;4815394;29;20057;-85
2023/08/11 12:45:19;;;;;;;1.90;0.60;;;23.90;66.40;;;;;;4813452;29;20064;-82
2023/08/11 12:47:46;;;;;;;0.90;0.50;;;24.20;66.60;;;;;;4840179;29;20388;-83
2023/08/11 12:50:13;;;;;;;1.42;0.65;;;24.30;64.60;;;;;;4815819;29;20145;-83
2023/08/11 12:52:40;;;;;;;2.58;0.40;;;24.10;62.10;;;;;;4809645;29;20522;-83
2023/08/11 12:55:09;;;;;;;2.97;0.70;;;23.80;63.60;;;;;;4823404;29;20050;-80
2023/08/11 12:57:36;;;;;;;1.73;0.50;;;23.90;64.70;;;;;;4841300;29;20082;-82
2023/08/11 13:00:05;;;;;;;0.90;0.50;;;23.90;63.80;;;;;;4809208;29;20581;-83
2023/08/11 13:02:32;;;;;;;0.77;0.70;;;24.10;64.20;;;;;;4807053;29;20070;-83
2023/08/11 13:04:59;;;;;;;1.42;0.55;;;24.30;64.20;;;;;;4815629;29;20053;-83
2023/08/11 13:07:26;;;;;;;2.35;0.80;;;24.20;64.20;;;;;;4808936;29;20073;-83
2023/08/11 13:09:55;;;;;;;2.33;0.60;;;24.20;64.60;;;;;;4826675;29;20524;-86
2023/08/11 13:12:22;;;;;;;2.45;0.47;;;24.00;65.20;;;;;;4812020;29;20053;-83
2023/08/11 13:14:49;;;;;;;1.80;0.60;;;23.80;64.70;;;;;;4810263;29;20133;-82
2023/08/11 13:17:17;;;;;;;0.90;0.50;;;23.60;65.60;;;;;;4823033;29;20046;-85
2023/08/11 13:19:44;;;;;;;1.98;0.40;;;23.50;66.00;;;;;;4817102;29;20046;-85
2023/08/11 13:22:11;;;;;;;1.35;0.55;;;23.50;65.20;;;;;;4839295;29;20050;-85
2023/08/11 13:24:39;;;;;;;0.68;0.38;;;23.60;65.40;;;;;;4811579;29;20053;-84
2023/08/11 13:27:06;;;;;;;1.60;0.40;;;23.90;66.60;;;;;;4809318;29;20054;-83
2023/08/11 13:29:33;;;;;;;1.30;0.77;;;24.10;66.40;;;;;;4806382;29;20065;-86
2023/08/11 13:32:00;;;;;;;1.52;0.40;;;24.10;64.40;;;;;;4806757;29;20069;-83
2023/08/11 13:34:28;;;;;;;1.08;0.50;;;24.20;62.40;;;;;;4837098;29;20110;-84
2023/08/11 13:36:57;;;;;;;1.77;0.47;;;24.30;61.30;;;;;;4809473;29;20149;-88
2023/08/11 13:39:24;;;;;;;1.10;0.50;;;24.40;61.00;;;;;;4827588;29;20094;-83
2023/08/11 13:41:51;;;;;;;1.00;0.50;;;24.50;62.10;;;;;;4807899;29;20066;-83
2023/08/11 13:44:20;;;;;;;0.98;0.40;;;24.70;62.10;;;;;;4811892;29;20058;-82
2023/08/11 13:46:47;;;;;;;2.05;0.40;;;24.80;61.00;;;;;;4811048;29;20123;-83
2023/08/11 13:49:15;;;;;;;1.30;0.30;;;24.60;60.70;;;;;;4805572;29;20058;-86
2023/08/11 13:51:42;;;;;;;1.00;0.52;;;24.20;60.10;;;;;;4822769;29;20451;-86
2023/08/11 13:54:09;;;;;;;2.50;0.70;;;23.90;61.10;;;;;;4801831;29;20064;-85
2023/08/11 13:56:38;;;;;;;1.10;0.50;;;23.90;62.40;;;;;;4801375;29;22827;-83
2023/08/11 13:59:05;;;;;;;1.48;0.30;;;23.80;62.10;;;;;;4787207;29;20088;-85
2023/08/11 14:01:34;;;;;;;2.60;0.85;;;23.60;62.80;;;;;;4811293;29;20111;-83
2023/08/11 14:04:01;;;;;;;0.77;0.40;;;23.80;62.40;;;;;;4809453;29;20413;-80
2023/08/11 14:06:28;;;;;;;0.90;0.45;;;24.00;62.80;;;;;;4805516;29;20077;-85
2023/08/11 14:08:58;;;;;;;1.25;0.63;;;24.20;62.80;;;;;;4823834;29;20144;-84
2023/08/11 14:11:29;;;;;;;1.23;0.57;;;24.20;61.30;;;;;;4807677;29;20399;-87
2023/08/11 14:13:56;;;;;;;2.45;0.60;;;23.90;62.20;;;;;;4807089;29;22816;-84
2023/08/11 14:16:23;;;;;;;0.88;0.55;;;23.80;63.10;;;;;;4810214;29;20153;-83
2023/08/11 14:18:50;;;;;;;2.92;0.60;;;23.70;64.10;;;;;;4804134;29;20050;-86
2023/08/11 14:21:22;;;;;;;2.40;0.90;;;23.50;65.20;;;;;;4813076;29;20049;-85
2023/08/11 14:23:50;;;;;;;1.73;0.95;;;23.40;66.00;;;;;;4813205;29;20509;-86
2023/08/11 14:26:17;;;;;;;1.90;0.50;;;23.30;67.00;;;;;;4803488;29;20502;-88
2023/08/11 14:28:44;;;;;;;1.40;0.70;;;23.20;67.00;;;;;;4808390;29;20533;-88
2023/08/11 14:31:12;;;;;;;1.52;0.60;;;23.10;67.60;;;;;;4813672;29;20077;-89
2023/08/11 14:33:40;;;;;;;1.30;0.40;;;23.10;67.40;;;;;;4825930;29;20055;-89
2023/08/11 14:36:08;;;;;;;2.55;0.60;;;23.00;67.00;;;;;;4814159;29;20060;-90
2023/08/11 14:38:40;;;;;;;1.27;0.50;;;23.00;68.20;;;;;;4806365;29;20058;-86
2023/08/11 14:41:07;;;;;;;1.60;0.70;;;23.20;67.70;;;;;;4838384;29;20223;-85
2023/08/11 14:43:34;;;;;;;0.73;0.47;;;23.40;67.60;;;;;;4823229;29;20059;-87
2023/08/11 14:46:02;;;;;;;1.25;0.60;;;23.60;65.50;;;;;;4836257;29;20073;-89
2023/08/11 14:48:29;;;;;;;1.10;0.50;;;23.60;65.60;;;;;;4810140;29;20545;-88
2023/08/11 14:50:57;;;;;;;2.35;0.50;;;23.80;66.10;;;;;;4813233;29;20057;-85
2023/08/11 14:53:24;;;;;;;3.55;0.50;;;23.80;66.00;;;;;;4811635;29;20054;-82
2023/08/11 14:55:51;;;;;;;1.95;0.50;;;23.90;64.10;;;;;;4806949;29;20050;-85
2023/08/11 14:58:19;;;;;;;3.30;0.73;;;23.90;63.40;;;;;;4817882;29;20038;-86
2023/08/11 15:00:47;;;;;;;1.90;0.50;;;23.90;63.90;;;;;;4822694;29;20091;-84
2023/08/11 15:03:15;;;;;;;1.88;1.17;;;24.00;63.50;;;;;;4810194;29;21000;-82
2023/08/11 15:05:42;;;;;;;2.17;0.55;;;24.00;63.00;;;;;;4806196;29;20050;-79
2023/08/11 15:08:10;;;;;;;1.83;0.63;;;24.00;62.70;;;;;;4818085;29;20050;-87
2023/08/11 15:10:37;;;;;;;1.27;0.95;;;24.00;61.30;;;;;;4811277;29;20077;-87
2023/08/11 15:13:04;;;;;;;1.92;0.60;;;24.00;62.60;;;;;;4816890;29;20061;-86
2023/08/11 15:15:32;;;;;;;1.85;0.60;;;24.00;63.30;;;;;;4827635;29;22900;-88
2023/08/11 15:17:59;;;;;;;2.25;0.60;;;23.90;64.00;;;;;;4806937;29;20046;-87
2023/08/11 15:20:29;;;;;;;1.23;0.40;;;23.90;64.00;;;;;;4825851;29;20064;-83
2023/08/11 15:22:56;;;;;;;1.80;0.45;;;24.00;63.10;;;;;;4804557;29;20511;-87
2023/08/11 15:25:23;;;;;;;0.98;0.60;;;23.90;63.40;;;;;;4821417;29;20501;-86
2023/08/11 15:27:50;;;;;;;1.23;0.47;;;23.80;64.10;;;;;;4834016;29;20561;-87
2023/08/11 15:30:19;;;;;;;1.52;0.77;;;23.80;62.70;;;;;;4817805;29;20042;-86
2023/08/11 15:32:46;;;;;;;0.88;0.30;;;23.90;62.60;;;;;;4802426;29;20054;-81
2023/08/11 15:35:16;;;;;;;1.08;0.40;;;23.90;61.80;;;;;;4801314;29;20050;-85
2023/08/11 15:37:44;;;;;;;0.70;0.40;;;24.00;60.50;;;;;;4816997;29;20064;-87
2023/08/11 15:40:12;;;;;;;1.70;0.60;;;24.10;60.50;;;;;;4805995;29;20053;-87
2023/08/11 15:42:39;;;;;;;0.90;0.40;;;24.00;60.60;;;;;;4801255;29;20050;-88
2023/08/11 15:45:07;;;;;;;1.35;0.30;;;23.90;60.70;;;;;;4809926;29;20145;-87
2023/08/11 15:47:35;;;;;;;1.45;0.57;;;23.80;61.40;;;;;;4822475;29;20046;-85
2023/08/11 15:50:03;;;;;;;1.30;0.40;;;23.80;60.70;;;;;;4820241;29;20088;-87
2023/08/11 15:52:32;;;;;;;1.33;0.70;;;23.80;60.20;;;;;;4823599;29;20053;-87
2023/08/11 15:54:59;;;;;;;1.15;0.50;;;23.70;60.80;;;;;;4807527;29;20512;-87
2023/08/11 15:57:27;;;;;;;1.90;0.40;;;23.70;61.00;;;;;;4809881;29;20050;-86
2023/08/11 15:59:54;;;;;;;1.70;0.55;;;23.70;61.10;;;;;;4812697;29;20129;-87
2023/08/11 16:02:21;;;;;;;1.65;0.40;;;23.70;61.30;;;;;;4815651;29;20050;-88
2023/08/11 16:04:49;;;;;;;1.55;0.60;;;23.60;61.90;;;;;;4804999;29;20074;-87
2023/08/11 16:07:17;;;;;;;1.23;0.60;;;23.80;61.10;;;;;;4800872;29;20516;-88
2023/08/11 16:09:50;;;;;;;0.95;0.50;;;23.80;61.40;;;;;;4809208;29;20050;-85
2023/08/11 16:12:18;;;;;;;0.70;0.35;;;23.80;60.20;;;;;;4811457;29;20077;-87
2023/08/11 16:14:45;;;;;;;1.13;0.30;;;23.70;60.30;;;;;;4808547;29;20060;-88
2023/08/11 16:17:12;;;;;;;1.52;0.47;;;23.70;60.50;;;;;;4820647;29;20074;-86
2023/08/11 16:19:39;;;;;;;1.67;0.98;;;23.70;60.30;;;;;;4806908;29;20069;-84
2023/08/11 16:22:06;;;;;;;1.48;0.50;;;23.70;60.60;;;;;;4821226;29;20135;-84
2023/08/11 16:24:37;;;;;;;1.23;0.45;;;23.70;60.80;;;;;;4821707;29;20137;-87
2023/08/11 16:27:04;;;;;;;2.15;0.50;;;23.70;60.00;;;;;;4806198;29;20058;-83
2023/08/11 16:29:37;;;;;;;2.75;0.60;;;23.70;60.80;;;;;;4817982;29;20144;-84
2023/08/11 16:32:04;;;;;;;1.58;0.40;;;23.60;60.90;;;;;;4824828;29;20061;-87
2023/08/11 16:34:32;;;;;;;1.90;0.60;;;23.50;60.70;;;;;;4814471;29;20469;-81
2023/08/11 16:36:59;;;;;;;1.40;0.50;;;23.50;60.70;;;;;;4813343;29;20166;-87
2023/08/11 16:39:26;;;;;;;1.10;0.68;;;23.50;60.80;;;;;;4812490;29;20111;-85
2023/08/11 16:41:53;;;;;;;1.35;0.40;;;23.50;61.10;;;;;;4808232;29;20038;-84
2023/08/11 16:44:20;;;;;;;2.25;0.70;;;23.50;59.60;;;;;;4820778;29;20054;-82
2023/08/11 16:46:47;;;;;;;1.10;0.40;;;23.50;59.50;;;;;;4811032;29;20069;-85
2023/08/11 16:49:18;;;;;;;2.10;0.50;;;23.50;59.60;;;;;;4825150;29;20115;-85
2023/08/11 16:51:45;;;;;;;1.33;0.60;;;23.40;60.30;;;;;;4836887;29;20153;-86
2023/08/11 16:54:12;;;;;;;1.08;0.30;;;23.40;60.00;;;;;;4821617;29;20760;-81
2023/08/11 16:56:39;;;;;;;2.00;0.40;;;23.40;59.20;;;;;;4808586;29;20064;-84
2023/08/11 16:59:06;;;;;;;0.90;0.30;;;23.40;59.10;;;;;;4810617;29;20053;-85
2023/08/11 17:01:33;;;;;;;1.70;0.32;;;23.40;58.80;;;;;;4830024;29;20110;-83